createdAt,value
2022-12-08T00:01:29.720Z,14.90
2022-12-08T00:03:59.481Z,14.97
2022-12-08T00:06:45.600Z,17.27
2022-12-08T00:09:24.469Z,15.60
2022-12-08T00:11:53.245Z,16.07
2022-12-08T00:14:27.986Z,15.53
2022-12-08T00:16:57.634Z,15.93
2022-12-08T00:19:26.663Z,17.07
2022-12-08T00:21:54.600Z,16.33
2022-12-08T00:24:22.644Z,16.23
2022-12-08T00:26:50.345Z,16.10
2022-12-08T00:29:18.770Z,15.90
2022-12-08T00:31:48.409Z,15.80
2022-12-08T00:34:16.868Z,18.23
2022-12-08T00:36:44.948Z,17.10
2022-12-08T00:39:13.742Z,19.93
2022-12-08T00:42:00.564Z,20.30
2022-12-08T00:44:28.456Z,19.43
2022-12-08T00:46:57.856Z,19.83
2022-12-08T00:49:25.649Z,17.37
2022-12-08T00:51:53.763Z,18.67
2022-12-08T00:54:23.676Z,19.70
2022-12-08T00:56:51.876Z,17.83
2022-12-08T00:59:20.048Z,19.13
2022-12-08T01:01:48.388Z,18.50
2022-12-08T01:04:18.245Z,15.90
2022-12-08T01:06:46.127Z,16.77
2022-12-08T01:09:14.489Z,18.53
2022-12-08T01:11:42.419Z,17.83
2022-12-08T01:14:10.192Z,17.53
2022-12-08T01:16:38.180Z,18.43
2022-12-08T01:19:07.569Z,18.37
2022-12-08T01:21:36.711Z,19.10
2022-12-08T01:24:06.349Z,18.00
2022-12-08T01:26:34.300Z,17.90
2022-12-08T01:29:02.330Z,16.77
2022-12-08T01:31:30.213Z,17.40
2022-12-08T01:33:58.840Z,18.37
2022-12-08T01:36:27.788Z,15.27
2022-12-08T01:38:58.466Z,18.53
2022-12-08T01:41:27.618Z,18.13
2022-12-08T01:43:59.275Z,15.83
2022-12-08T01:46:28.126Z,18.53
2022-12-08T01:49:01.399Z,20.07
2022-12-08T01:51:29.431Z,21.13
2022-12-08T01:53:58.946Z,16.77
2022-12-08T01:56:30.816Z,17.07
2022-12-08T01:58:59.095Z,19.23
2022-12-08T02:01:27.396Z,19.03
2022-12-08T02:03:59.177Z,19.93
2022-12-08T02:06:29.619Z,18.77
2022-12-08T02:09:00.946Z,19.73
2022-12-08T02:11:29.352Z,19.57
2022-12-08T02:13:57.959Z,21.37
2022-12-08T02:16:34.277Z,18.13
2022-12-08T02:19:30.350Z,18.80
2022-12-08T02:21:59.414Z,19.63
2022-12-08T02:24:33.600Z,21.27
2022-12-08T02:27:15.360Z,19.20
2022-12-08T02:29:49.623Z,19.13
2022-12-08T02:32:27.653Z,19.50
2022-12-08T02:34:59.737Z,20.53
2022-12-08T02:37:29.562Z,19.13
2022-12-08T02:40:02.742Z,20.80
2022-12-08T02:42:33.869Z,20.97
2022-12-08T02:45:04.812Z,21.07
2022-12-08T02:47:34.005Z,21.67
2022-12-08T02:50:03.578Z,24.07
2022-12-08T02:52:42.076Z,21.07
2022-12-08T02:55:12.874Z,23.60
2022-12-08T02:57:46.289Z,23.40
2022-12-08T03:00:15.917Z,22.60
2022-12-08T03:02:46.703Z,21.90
2022-12-08T03:05:29.403Z,38.33
2022-12-08T03:08:02.119Z,34.17
2022-12-08T03:10:33.896Z,25.63
2022-12-08T03:13:04.535Z,20.63
2022-12-08T03:15:32.996Z,19.90
2022-12-08T03:18:01.375Z,20.10
2022-12-08T03:20:31.633Z,20.93
2022-12-08T03:23:01.799Z,19.03
2022-12-08T03:25:32.098Z,21.63
2022-12-08T03:28:00.507Z,19.50
2022-12-08T03:30:29.010Z,19.57
2022-12-08T03:32:59.148Z,20.60
2022-12-08T03:35:30.107Z,19.97
2022-12-08T03:38:05.304Z,19.63
2022-12-08T03:40:33.189Z,19.83
2022-12-08T03:43:01.523Z,18.80
2022-12-08T03:45:30.061Z,20.50
2022-12-08T03:47:57.970Z,20.47
2022-12-08T03:50:26.305Z,20.50
2022-12-08T03:52:54.053Z,21.80
2022-12-08T03:55:23.087Z,20.77
2022-12-08T03:57:51.019Z,19.63
2022-12-08T04:00:19.451Z,22.73
2022-12-08T04:02:47.104Z,21.87
2022-12-08T04:05:14.930Z,20.63
2022-12-08T04:07:43.817Z,18.93
2022-12-08T04:10:12.213Z,19.83
2022-12-08T04:12:41.922Z,21.87
2022-12-08T04:15:10.479Z,19.50
2022-12-08T04:17:38.434Z,20.13
2022-12-08T04:20:07.146Z,20.50
2022-12-08T04:22:35.348Z,19.70
2022-12-08T04:25:03.180Z,20.83
2022-12-08T04:27:31.844Z,19.60
2022-12-08T04:30:03.296Z,19.80
2022-12-08T04:32:31.439Z,19.70
2022-12-08T04:35:00.255Z,21.43
2022-12-08T04:37:29.416Z,18.70
2022-12-08T04:39:57.113Z,20.33
2022-12-08T04:42:25.267Z,20.30
2022-12-08T04:44:55.277Z,22.57
2022-12-08T04:47:24.529Z,24.67
2022-12-08T04:49:52.741Z,26.27
2022-12-08T04:52:20.713Z,26.50
2022-12-08T04:54:48.334Z,28.00
2022-12-08T04:57:16.420Z,28.30
2022-12-08T04:59:44.146Z,28.77
2022-12-08T05:02:13.611Z,23.23
2022-12-08T05:04:42.888Z,26.13
2022-12-08T05:07:10.606Z,23.90
2022-12-08T05:09:38.477Z,23.23
2022-12-08T05:12:10.025Z,21.53
2022-12-08T05:14:37.831Z,19.60
2022-12-08T05:17:09.565Z,22.10
2022-12-08T05:19:37.647Z,24.67
2022-12-08T05:22:07.075Z,22.27
2022-12-08T05:24:34.773Z,22.50
2022-12-08T05:27:02.597Z,21.23
2022-12-08T05:29:30.633Z,21.97
2022-12-08T05:31:59.856Z,22.63
2022-12-08T05:34:27.932Z,20.93
2022-12-08T05:36:57.707Z,24.27
2022-12-08T05:39:27.187Z,26.53
2022-12-08T05:41:54.953Z,22.93
2022-12-08T05:44:23.050Z,26.40
2022-12-08T05:46:50.969Z,26.80
2022-12-08T05:49:19.339Z,25.07
2022-12-08T05:51:47.666Z,23.77
2022-12-08T05:54:22.946Z,26.17
2022-12-08T05:56:52.223Z,26.77
2022-12-08T05:59:20.295Z,28.13
2022-12-08T06:01:48.122Z,27.93
2022-12-08T06:04:17.199Z,29.17
2022-12-08T06:06:44.915Z,30.27
2022-12-08T06:09:13.177Z,27.43
2022-12-08T06:11:41.521Z,30.97
2022-12-08T06:14:13.244Z,29.33
2022-12-08T06:16:41.178Z,29.47
2022-12-08T06:19:09.299Z,29.87
2022-12-08T06:21:37.108Z,27.57
2022-12-08T06:24:04.968Z,30.20
2022-12-08T06:26:33.042Z,29.50
2022-12-08T06:29:01.776Z,32.27
2022-12-08T06:31:30.981Z,32.40
2022-12-08T06:33:59.277Z,32.07
2022-12-08T06:36:28.527Z,35.37
2022-12-08T06:38:56.554Z,27.27
2022-12-08T06:41:24.724Z,29.00
2022-12-08T06:43:55.650Z,33.23
2022-12-08T06:46:23.483Z,33.00
2022-12-08T06:48:53.251Z,33.27
2022-12-08T06:51:22.899Z,33.23
2022-12-08T06:53:50.902Z,31.17
2022-12-08T06:56:20.326Z,31.13
2022-12-08T06:58:52.427Z,36.00
2022-12-08T07:01:21.081Z,28.77
2022-12-08T07:03:49.137Z,28.43
2022-12-08T07:06:20.834Z,26.67
2022-12-08T07:08:48.628Z,24.87
2022-12-08T07:11:21.138Z,26.70
2022-12-08T07:13:51.089Z,21.37
2022-12-08T07:16:19.385Z,24.37
2022-12-08T07:18:47.674Z,25.33
2022-12-08T07:21:16.397Z,27.33
2022-12-08T07:23:47.878Z,24.83
2022-12-08T07:26:18.450Z,28.13
2022-12-08T07:28:46.441Z,32.27
2022-12-08T07:31:18.394Z,27.93
2022-12-08T07:33:46.161Z,20.87
2022-12-08T07:36:14.193Z,35.83
2022-12-08T07:38:42.334Z,36.83
2022-12-08T07:41:14.692Z,33.17
2022-12-08T07:43:43.337Z,40.90
2022-12-08T07:46:12.895Z,44.97
2022-12-08T07:48:40.602Z,45.77
2022-12-08T07:51:08.556Z,43.47
2022-12-08T07:53:36.257Z,41.03
2022-12-08T07:56:06.669Z,40.77
2022-12-08T07:58:36.816Z,40.23
2022-12-08T08:01:05.140Z,38.53
2022-12-08T08:03:33.551Z,40.23
2022-12-08T08:06:04.450Z,37.77
2022-12-08T08:08:32.706Z,36.17
2022-12-08T08:11:00.443Z,36.20
2022-12-08T08:13:29.281Z,36.90
2022-12-08T08:16:03.616Z,33.90
2022-12-08T08:18:31.497Z,31.93
2022-12-08T08:21:06.712Z,33.33
2022-12-08T08:23:47.331Z,30.73
2022-12-08T08:26:15.285Z,32.97
2022-12-08T08:28:43.745Z,30.87
2022-12-08T08:31:13.385Z,31.43
2022-12-08T08:33:41.660Z,31.70
2022-12-08T08:36:09.815Z,32.17
2022-12-08T08:38:40.331Z,29.97
2022-12-08T08:41:11.986Z,26.47
2022-12-08T08:43:39.771Z,27.47
2022-12-08T08:46:09.308Z,29.87
2022-12-08T08:48:39.089Z,29.27
2022-12-08T08:51:11.317Z,26.77
2022-12-08T08:53:39.168Z,27.87
2022-12-08T08:56:09.951Z,27.67
2022-12-08T08:58:38.101Z,26.87
2022-12-08T09:01:05.916Z,27.53
2022-12-08T09:03:34.563Z,26.43
2022-12-08T09:06:06.896Z,29.07
2022-12-08T09:08:34.799Z,25.43
2022-12-08T09:11:03.474Z,22.80
2022-12-08T09:13:31.406Z,21.13
2022-12-08T09:15:59.326Z,23.70
2022-12-08T09:18:27.158Z,24.63
2022-12-08T09:20:55.559Z,32.50
2022-12-08T09:23:24.758Z,36.13
2022-12-08T09:25:52.850Z,35.33
2022-12-08T09:28:21.070Z,36.93
2022-12-08T09:30:49.068Z,30.77
2022-12-08T09:33:17.244Z,21.97
2022-12-08T09:35:45.404Z,26.33
2022-12-08T09:38:15.805Z,21.40
2022-12-08T09:40:48.256Z,19.33
2022-12-08T09:43:21.865Z,19.87
2022-12-08T09:45:53.270Z,17.47
2022-12-08T09:48:24.624Z,22.70
2022-12-08T09:50:54.443Z,20.73
2022-12-08T09:53:24.456Z,19.90
2022-12-08T09:55:55.183Z,17.60
2022-12-08T09:58:26.999Z,19.53
2022-12-08T10:00:54.741Z,19.83
2022-12-08T10:03:25.684Z,17.33
2022-12-08T10:05:56.250Z,17.43
2022-12-08T10:08:28.242Z,18.33
2022-12-08T10:10:58.760Z,19.23
2022-12-08T10:13:30.862Z,16.07
2022-12-08T10:16:03.709Z,18.00
2022-12-08T10:18:35.848Z,16.57
2022-12-08T10:21:12.873Z,17.70
2022-12-08T10:23:42.381Z,17.90
2022-12-08T10:26:13.493Z,15.63
2022-12-08T10:28:45.176Z,15.83
2022-12-08T10:31:18.171Z,13.83
2022-12-08T10:33:47.068Z,15.90
2022-12-08T10:36:15.260Z,14.67
2022-12-08T10:38:43.044Z,13.63
2022-12-08T10:41:14.795Z,12.57
2022-12-08T10:43:45.949Z,12.97
2022-12-08T10:46:18.722Z,13.23
2022-12-08T10:48:50.499Z,14.53
2022-12-08T10:51:25.559Z,16.97
2022-12-08T10:53:53.462Z,13.97
2022-12-08T10:56:25.681Z,10.37
2022-12-08T10:59:05.663Z,13.33
2022-12-08T11:01:36.436Z,12.73
2022-12-08T11:04:05.475Z,11.63
2022-12-08T11:06:35.585Z,11.27
2022-12-08T11:09:05.013Z,10.47
2022-12-08T11:11:46.505Z,11.13
2022-12-08T11:14:17.817Z,12.80
2022-12-08T11:16:46.019Z,13.10
2022-12-08T11:19:17.089Z,9.60
2022-12-08T11:21:45.379Z,13.03
2022-12-08T11:24:22.416Z,10.40
2022-12-08T11:26:53.173Z,9.80
2022-12-08T11:29:21.157Z,10.23
2022-12-08T11:31:52.208Z,11.00
2022-12-08T11:34:21.652Z,11.80
2022-12-08T11:36:51.870Z,11.07
2022-12-08T11:39:21.147Z,11.20
2022-12-08T11:41:50.566Z,7.57
2022-12-08T11:44:25.237Z,9.63
2022-12-08T11:46:56.712Z,9.43
2022-12-08T11:49:27.232Z,10.07
2022-12-08T11:51:57.661Z,10.03
2022-12-08T11:54:27.852Z,8.10
2022-12-08T11:56:56.960Z,8.83
2022-12-08T11:59:30.032Z,9.10
2022-12-08T12:01:58.772Z,9.13
2022-12-08T12:04:31.921Z,9.27
2022-12-08T12:07:23.072Z,10.27
2022-12-08T12:10:01.413Z,10.00
2022-12-08T12:12:39.720Z,10.50
2022-12-08T12:15:32.698Z,8.47
2022-12-08T12:18:03.016Z,9.50
2022-12-08T12:20:33.174Z,9.60
2022-12-08T12:23:04.957Z,9.50
2022-12-08T12:25:33.708Z,9.47
2022-12-08T12:28:03.765Z,9.53
2022-12-08T12:30:37.697Z,9.30
2022-12-08T12:33:08.779Z,9.40
2022-12-08T12:35:38.164Z,9.10
2022-12-08T12:38:28.642Z,9.50
2022-12-08T12:41:01.352Z,9.40
2022-12-08T12:43:31.566Z,9.13
2022-12-08T12:46:17.792Z,9.43
2022-12-08T12:48:47.690Z,9.67
2022-12-08T12:51:34.029Z,9.47
2022-12-08T12:54:21.900Z,9.70
2022-12-08T12:56:51.707Z,10.40
2022-12-08T12:59:38.501Z,11.20
2022-12-08T13:02:17.064Z,9.80
2022-12-08T13:04:54.181Z,9.60
2022-12-08T13:07:22.674Z,9.43
2022-12-08T13:09:56.826Z,10.90
2022-12-08T13:12:28.910Z,8.43
2022-12-08T13:15:00.973Z,7.03
2022-12-08T13:17:30.401Z,9.70
2022-12-08T13:20:00.871Z,11.60
2022-12-08T13:22:48.244Z,12.67
2022-12-08T13:25:37.020Z,12.77
2022-12-08T13:28:10.308Z,13.40
2022-12-08T13:30:46.253Z,13.73
2022-12-08T13:33:19.333Z,13.33
2022-12-08T13:35:54.818Z,11.20
2022-12-08T13:38:24.122Z,10.63
2022-12-08T13:40:54.979Z,11.73
2022-12-08T13:43:28.269Z,11.30
2022-12-08T13:55:49.837Z,11.03
2022-12-08T13:57:27.148Z,15.17
2022-12-08T13:59:55.409Z,12.07
2022-12-08T14:02:28.321Z,13.57
2022-12-08T14:07:46.128Z,12.87
2022-12-08T14:10:17.468Z,12.27
2022-12-08T14:12:47.561Z,14.10
2022-12-08T14:15:16.925Z,14.37
2022-12-08T14:17:52.311Z,14.20
2022-12-08T14:20:22.187Z,10.87
2022-12-08T14:22:53.301Z,11.97
2022-12-08T14:25:21.994Z,12.43
2022-12-08T14:27:49.971Z,13.20
2022-12-08T14:30:21.679Z,14.00
2022-12-08T14:32:50.383Z,13.87
2022-12-08T14:35:23.898Z,14.67
2022-12-08T14:37:55.452Z,13.73
2022-12-08T14:40:24.469Z,14.73
2022-12-08T14:42:53.820Z,14.20
2022-12-08T14:45:22.524Z,13.33
2022-12-08T14:47:51.541Z,15.37
2022-12-08T14:50:39.620Z,13.50
2022-12-08T14:53:14.479Z,13.13
2022-12-08T14:55:42.350Z,16.83
2022-12-08T14:58:17.485Z,15.57
2022-12-08T15:00:46.584Z,10.67
2022-12-08T15:03:14.514Z,14.97
2022-12-08T15:05:43.479Z,14.80
2022-12-08T15:08:16.572Z,16.10
2022-12-08T15:10:48.411Z,16.07
2022-12-08T15:13:23.524Z,16.30
2022-12-08T15:15:52.834Z,17.03
2022-12-08T15:18:22.322Z,15.10
2022-12-08T15:20:54.270Z,19.27
2022-12-08T15:23:26.413Z,17.47
2022-12-08T15:25:56.620Z,16.43
2022-12-08T15:28:30.019Z,17.00
2022-12-08T15:30:59.891Z,15.97
2022-12-08T15:33:28.377Z,14.63
2022-12-08T15:35:56.423Z,15.30
2022-12-08T15:38:26.824Z,15.33
2022-12-08T15:40:55.132Z,16.47
2022-12-08T15:43:23.832Z,15.10
2022-12-08T15:45:59.222Z,14.67
2022-12-08T15:48:29.047Z,11.77
2022-12-08T15:50:57.356Z,11.50
2022-12-08T15:53:26.628Z,9.07
2022-12-08T15:56:26.536Z,9.23
2022-12-08T15:58:55.331Z,10.13
2022-12-08T16:01:24.014Z,11.00
2022-12-08T16:07:19.712Z,10.87
2022-12-08T16:09:33.207Z,12.33
2022-12-08T16:12:18.771Z,9.77
2022-12-08T16:15:48.672Z,13.63
2022-12-08T16:17:35.551Z,11.67
2022-12-08T16:20:04.908Z,12.20
2022-12-08T16:25:24.122Z,12.53
2022-12-08T16:28:17.481Z,11.93
2022-12-08T16:30:42.194Z,12.10
2022-12-08T16:33:10.723Z,9.70
2022-12-08T16:35:38.408Z,7.47
2022-12-08T16:38:06.233Z,10.50
2022-12-08T16:40:57.301Z,9.77
2022-12-08T16:43:24.536Z,10.93
2022-12-08T16:45:52.893Z,11.00
2022-12-08T16:48:20.730Z,11.67
2022-12-08T16:50:48.601Z,11.07
2022-12-08T16:53:16.257Z,10.77
2022-12-08T16:55:48.347Z,10.57
2022-12-08T16:58:16.626Z,11.40
2022-12-08T17:00:44.512Z,10.83
2022-12-08T17:03:13.903Z,9.53
2022-12-08T17:05:42.110Z,12.10
2022-12-08T17:08:10.392Z,10.70
2022-12-08T17:10:39.676Z,11.23
2022-12-08T17:13:09.084Z,10.40
2022-12-08T17:15:36.790Z,9.03
2022-12-08T17:18:04.979Z,12.30
2022-12-08T17:20:34.177Z,12.93
2022-12-08T17:23:01.967Z,11.87
2022-12-08T17:25:30.149Z,13.20
2022-12-08T17:27:58.445Z,10.67
2022-12-08T17:30:27.836Z,11.77
2022-12-08T17:32:55.605Z,11.10
2022-12-08T17:35:24.137Z,8.73
2022-12-08T17:37:51.839Z,9.83
2022-12-08T17:40:19.735Z,9.10
2022-12-08T17:42:48.095Z,10.30
2022-12-08T17:45:15.885Z,11.20
2022-12-08T17:47:45.047Z,9.13
2022-12-08T17:50:12.992Z,9.30
2022-12-08T17:52:40.782Z,10.60
2022-12-08T17:55:10.234Z,10.40
2022-12-08T17:57:39.144Z,10.03
2022-12-08T18:00:07.952Z,9.30
2022-12-08T18:02:38.433Z,8.87
2022-12-08T18:05:08.798Z,8.60
2022-12-08T18:07:36.720Z,7.20
2022-12-08T18:10:05.486Z,8.80
2022-12-08T18:12:33.704Z,9.30
2022-12-08T18:15:01.396Z,9.77
2022-12-08T18:17:29.145Z,8.40
2022-12-08T18:19:56.827Z,8.77
2022-12-08T18:22:26.807Z,8.83
2022-12-08T18:24:54.996Z,9.37
2022-12-08T18:27:24.912Z,10.00
2022-12-08T18:29:53.269Z,7.07
2022-12-08T18:32:23.686Z,8.93
2022-12-08T18:34:51.697Z,10.30
2022-12-08T18:37:19.859Z,8.23
2022-12-08T18:39:49.137Z,7.30
2022-12-08T18:42:28.635Z,8.77
2022-12-08T18:45:01.735Z,7.67
2022-12-08T18:47:29.939Z,8.07
2022-12-08T18:49:57.816Z,6.97
2022-12-08T18:52:31.588Z,7.07
2022-12-08T18:55:08.573Z,6.93
2022-12-08T18:57:37.488Z,6.93
2022-12-08T19:00:06.112Z,7.43
2022-12-08T19:02:34.527Z,7.07
2022-12-08T19:05:02.573Z,7.40
2022-12-08T19:07:30.439Z,7.00
2022-12-08T19:09:59.338Z,3.57
2022-12-08T19:12:29.052Z,6.97
2022-12-08T19:14:56.748Z,9.07
2022-12-08T19:17:26.017Z,9.20
2022-12-08T19:19:53.980Z,9.70
2022-12-08T19:22:22.069Z,9.23
2022-12-08T19:24:50.216Z,10.97
2022-12-08T19:27:18.708Z,9.07
2022-12-08T19:29:48.596Z,7.73
2022-12-08T19:32:16.373Z,8.23
2022-12-08T19:34:44.452Z,9.47
2022-12-08T19:37:13.385Z,8.33
2022-12-08T19:39:58.901Z,10.20
2022-12-08T19:42:44.771Z,9.63
2022-12-08T19:45:15.428Z,9.00
2022-12-08T19:47:43.863Z,9.03
2022-12-08T19:50:30.063Z,9.40
2022-12-08T19:53:07.270Z,7.80
2022-12-08T19:55:35.267Z,9.20
2022-12-08T19:58:03.289Z,9.23
2022-12-08T20:00:32.932Z,9.73
2022-12-08T20:03:01.952Z,9.83
2022-12-08T20:05:31.078Z,7.23
2022-12-08T20:07:59.188Z,9.67
2022-12-08T20:10:29.375Z,7.93
2022-12-08T20:13:18.547Z,7.10
2022-12-08T20:15:47.943Z,7.70
2022-12-08T20:18:16.507Z,7.73
2022-12-08T20:20:45.132Z,7.93
2022-12-08T20:23:13.637Z,7.80
2022-12-08T20:25:42.261Z,7.50
2022-12-08T20:28:10.088Z,7.27
2022-12-08T20:30:39.425Z,7.90
2022-12-08T20:33:08.711Z,8.03
2022-12-08T20:35:37.040Z,8.43
2022-12-08T20:38:04.849Z,8.80
2022-12-08T20:40:33.092Z,6.53
2022-12-08T20:43:02.518Z,8.50
2022-12-08T20:45:30.352Z,9.33
2022-12-08T20:47:58.491Z,10.17
2022-12-08T20:50:29.006Z,9.37
2022-12-08T20:52:57.111Z,9.90
2022-12-08T20:55:25.040Z,12.63
2022-12-08T20:57:53.471Z,10.73
2022-12-08T21:00:23.513Z,11.57
2022-12-08T21:02:56.519Z,11.30
2022-12-08T21:05:25.568Z,11.27
2022-12-08T21:08:02.485Z,12.30
2022-12-08T21:10:30.576Z,10.47
2022-12-08T21:12:58.387Z,11.20
2022-12-08T21:15:26.573Z,13.03
2022-12-08T21:17:56.159Z,12.67
2022-12-08T21:20:24.243Z,13.20
2022-12-08T21:22:52.130Z,12.77
2022-12-08T21:25:21.702Z,12.67
2022-12-08T21:27:50.187Z,12.67
2022-12-08T21:30:18.461Z,12.23
2022-12-08T21:32:46.905Z,11.23
2022-12-08T21:35:15.163Z,11.77
2022-12-08T21:37:43.601Z,12.00
2022-12-08T21:40:12.249Z,12.23
2022-12-08T21:42:46.274Z,11.63
2022-12-08T21:45:15.493Z,10.77
2022-12-08T21:47:43.649Z,12.10
2022-12-08T21:50:12.650Z,11.13
2022-12-08T21:52:41.764Z,11.47
2022-12-08T21:55:10.746Z,11.50
2022-12-08T21:57:39.932Z,10.23
2022-12-08T22:00:14.415Z,8.93
2022-12-08T22:02:42.668Z,9.80
2022-12-08T22:05:11.550Z,9.80
2022-12-08T22:07:40.612Z,10.00
2022-12-08T22:10:10.186Z,10.10
2022-12-08T22:12:38.933Z,11.20
2022-12-08T22:15:09.776Z,10.60
2022-12-08T22:17:39.514Z,8.83
2022-12-08T22:20:08.883Z,10.77
2022-12-08T22:22:37.685Z,11.67
2022-12-08T22:25:06.504Z,10.90
2022-12-08T22:27:35.855Z,9.97
2022-12-08T22:30:06.382Z,11.37
2022-12-08T22:32:34.614Z,10.90
2022-12-08T22:35:05.059Z,11.07
2022-12-08T22:37:33.320Z,10.13
2022-12-08T22:40:01.339Z,10.00
2022-12-08T22:42:29.620Z,11.27
2022-12-08T22:44:57.740Z,10.37
2022-12-08T22:47:25.755Z,12.33
2022-12-08T22:49:53.977Z,10.27
2022-12-08T22:52:23.597Z,10.43
2022-12-08T22:54:51.735Z,11.90
2022-12-08T22:57:19.512Z,11.07
2022-12-08T22:59:47.302Z,11.23
2022-12-08T23:02:15.547Z,11.23
2022-12-08T23:04:43.613Z,10.90
2022-12-08T23:07:12.123Z,11.13
2022-12-08T23:09:41.575Z,12.93
2022-12-08T23:12:09.501Z,11.87
2022-12-08T23:14:37.368Z,12.13
2022-12-08T23:17:06.835Z,13.13
2022-12-08T23:19:36.597Z,11.80
2022-12-08T23:22:04.507Z,12.17
2022-12-08T23:24:32.508Z,12.50
2022-12-08T23:27:01.697Z,13.17
2022-12-08T23:29:29.785Z,12.93
2022-12-08T23:31:59.005Z,11.77
2022-12-08T23:34:26.762Z,10.93
2022-12-08T23:36:55.665Z,11.97
2022-12-08T23:39:24.869Z,12.77
2022-12-08T23:41:53.755Z,13.47
2022-12-08T23:44:23.410Z,13.70
2022-12-08T23:46:52.840Z,13.30
2022-12-08T23:49:21.578Z,12.13
2022-12-08T23:51:49.602Z,11.20
2022-12-08T23:54:17.533Z,12.00
2022-12-08T23:56:45.253Z,12.47
2022-12-08T23:59:13.137Z,13.13
